• Join FlightAware (Why Join?)
  • Login
  • US Flag 
08:13AM EST


 

Airport Tracker/Info


-or-


 

Live Flight TrackerFlight Track Log ✈ AWE1842 ✈ 20-Apr-2013 ✈ KMCO - KCLT

Flight Track Log - Related Links

Times and Time Zones

All times are in EDT time to prevent confusion due to time zone crossing. See the AWE1842 flight status page for this flight to view local times or setup timezone preferences in your user account.

Time Position Orientation Groundspeed Altitude Reporting Facility
EDT Latitude Longitude Course Direction KTS MPH feet Rate Location/Type
05:25AM 28.4170 -81.3220 180° South 164 189 1,200  Level FlightAware
05:25AM 28.4020 -81.3270 196° South 171 197 2,100 2,400 Climbing FlightAware
05:25AM 28.3870 -81.3340 202° Southwest 186 214 2,800 2,400 Climbing FlightAware
05:25AM 28.3790 -81.3470 235° Southwest 197 227 3,500 3,000 Climbing FlightAware
05:26AM 28.3760 -81.3730 263° West 214 246 4,800 2,940 Climbing FlightAware
05:26AM 28.3720 -81.4110 263° West 238 274 6,200 3,060 Climbing FlightAware
05:27AM 28.3680 -81.4290 256° West 250 288 7,100 3,420 Climbing FlightAware
05:27AM 28.3670 -81.4610 268° West 262 302 8,500 3,300 Climbing FlightAware
05:27AM 28.3670 -81.4830 270° West 270 311 9,300 2,940 Climbing FlightAware
05:28AM 28.3660 -81.5430 269° West 298 343 11,200 3,300 Climbing FlightAware
05:29AM 28.3640 -81.6130 268° West 300 345 14,000 3,480 Climbing FlightAware
05:29AM 28.3630 -81.6600 269° West 305 351 15,600 3,180 Climbing FlightAware
05:30AM 28.3610 -81.7390 268° West 305 351 18,300 2,520 Climbing FlightAware
05:31AM 28.3590 -81.8160 268° West 343 395 19,600 1,740 Climbing FlightAware
05:31AM 28.3860 -81.8910 292° West 390 449 20,800 2,220 Climbing FlightAware
05:32AM 28.4440 -81.9540 316° Northwest 396 456 22,800 2,400 Climbing FlightAware
05:33AM 28.5040 -82.0070 322° Northwest 422 486 24,200 1,800 Climbing FlightAware
05:34AM 28.5750 -82.0470 334° Northwest 448 516 25,200 1,620 Climbing FlightAware
05:34AM 28.6060 -82.0550 347° North 467 537 25,700 1,680 Climbing FlightAware
05:35AM 28.7040 -82.0790 348° North 480 552 26,900 1,740 Climbing FlightAware
05:35AM 28.7940 -82.0950 351° North 489 563 28,200 1,980 Climbing FlightAware
05:36AM 28.8860 -82.1080 353° North 491 565 29,600 2,460 Climbing FlightAware
05:37AM 28.9820 -82.1220 353° North 475 547 31,700 2,520 Climbing FlightAware
05:37AM 29.0690 -82.1340 312° West 472 543 33,200 2,220 Climbing FlightAware
05:38AM 29.1570 -82.1460 353° North 467 537 34,700 2,040 Climbing FlightAware
05:39AM 29.2540 -82.1610 352° North 463 533 36,100 1,800 Climbing FlightAware
05:39AM 29.3390 -82.1730 353° North 458 527 37,300 1,320 Climbing FlightAware
05:40AM 29.4320 -82.1870 353° North 458 527 38,000 480 Climbing FlightAware
05:41AM 29.5150 -82.2000 352° North 456 525 38,000  Level FlightAware
05:41AM 29.5930 -82.2110 353° North 452 520 38,000  Level FlightAware
05:42AM 29.6900 -82.2260 352° North 439 505 38,000  Level FlightAware
05:43AM 29.8030 -82.2430 353° North 442 509 38,000  Level FlightAware
05:44AM 29.8890 -82.2570 352° North 442 509 38,000  Level FlightAware
05:45AM 29.9580 -82.2680 352° North 442 509 38,000  Level FlightAware
05:45AM 30.0440 -82.2790 354° North 443 510 38,000  Level FlightAware
05:46AM 30.1440 -82.2950 352° North 445 512 38,000  Level FlightAware
05:47AM 30.2130 -82.3060 352° North 445 512 38,000  Level FlightAware
05:47AM 30.2830 -82.3170 352° North 445 512 38,000  Level FlightAware
05:48AM 30.3520 -82.3290 351° North 445 512 38,000  Level FlightAware
05:49AM 30.4210 -82.3400 352° North 445 512 38,000  Level FlightAware
05:49AM 30.4910 -82.3510 352° North 445 512 38,000  Level FlightAware
05:50AM 30.5770 -82.3650 352° North 445 512 38,000  Level FlightAware
05:51AM 30.6470 -82.3770 352° North 445 512 38,000  Level FlightAware
05:51AM 30.7160 -82.3880 352° North 445 512 38,000  Level FlightAware
05:52AM 30.7850 -82.3990 352° North 445 512 38,000  Level FlightAware
05:53AM 30.8550 -82.4110 352° North 445 512 38,000  Level FlightAware
05:54AM 30.9410 -82.4250 352° North 445 512 38,000  Level FlightAware
05:54AM 31.0110 -82.4360 352° North 445 512 38,000  Level FlightAware
05:55AM 31.0800 -82.4480 352° North 445 512 38,000  Level FlightAware
05:55AM 31.3558 -82.4839 352° North 467 537 38,000  Level Jacksonville Center
05:56AM 31.4853 -82.4981 355° North 467 537 38,000  Level Jacksonville Center
05:57AM 31.6189 -82.4972 360° North 472 543 38,000  Level Jacksonville Center
06:04AM 32.5040 -82.3560 360° North 515 593 38,000  Level FlightAware
06:04AM 32.6080 -82.3390 North 518 596 38,000  Level FlightAware
06:05AM 32.6870 -82.3270 North 520 598 38,000  Level FlightAware
06:06AM 32.7980 -82.3090 North 522 601 38,000  Level FlightAware
06:07AM 32.9780 -82.2800 North 518 596 38,000  Level FlightAware
06:08AM 33.0760 -82.2640 North 521 600 38,000 -960 Level FlightAware
06:09AM 33.2490 -82.2360 North 530 610 36,300 -1,920 Descending FlightAware
06:10AM 33.3710 -82.2170 North 532 612 34,200 -2,880 Descending FlightAware
06:10AM 33.4700 -82.2010 North 542 624 32,000 -2,940 Descending FlightAware
06:11AM 33.5910 -82.1810 North 541 623 29,800 -2,580 Descending FlightAware
06:12AM 33.7030 -82.1650 North 529 609 28,000 -2,160 Descending FlightAware
06:13AM 33.7950 -82.1600 North 509 586 26,800 -1,860 Descending FlightAware
06:13AM 33.9040 -82.1590 360° North 488 562 25,400 -1,860 Descending FlightAware
06:14AM 33.9930 -82.1580 North 476 548 24,200 -1,080 Descending FlightAware
06:15AM 34.0770 -82.1560 North 437 503 24,000 -480 Descending FlightAware
06:15AM 34.1630 -82.1550 North 407 468 23,600 -1,020 Descending FlightAware
06:16AM 34.2380 -82.1480 North 421 484 22,600 -1,500 Descending FlightAware
06:17AM 34.2860 -82.1120 32° Northeast 434 499 21,900 -1,380 Descending FlightAware
06:18AM 34.3790 -81.9920 47° Northeast 422 486 20,300 -1,080 Descending FlightAware
06:19AM 34.4680 -81.8790 46° Northeast 413 475 19,500 -2,040 Descending FlightAware
06:19AM 34.5140 -81.8210 46° Northeast 426 490 16,900 -3,540 Descending FlightAware
06:20AM 34.5780 -81.7410 46° Northeast 420 483 15,100 -1,140 Descending FlightAware
06:21AM 34.6320 -81.6720 46° Northeast 420 483 15,100  Level FlightAware
06:22AM 34.6780 -81.6150 46° Northeast 420 483 15,100  Level FlightAware
06:22AM 34.7240 -81.5570 46° Northeast 420 483 15,100  Level FlightAware
06:23AM 34.7690 -81.4990 47° Northeast 420 483 15,100  Level FlightAware
06:24AM 34.8150 -81.4410 46° Northeast 420 483 15,100 -3,120 Level FlightAware
06:24AM 34.8394 -81.4269 46° Northeast 284 327 11,500 -5,220 Descending FAA TRACON SMA TRACON (SMA)
06:24AM 34.8639 -81.4039 38° Northeast 288 331 10,700 -2,220 Descending FAA TRACON SMA TRACON (SMA)
06:25AM 34.8817 -81.3878 37° Northeast 283 326 10,000 -1,980 Descending FAA TRACON SMA TRACON (SMA)
06:25AM 34.9014 -81.3669 41° Northeast 282 325 9,300 -1,860 Descending FAA TRACON SMA TRACON (SMA)
06:26AM 34.9219 -81.3414 46° Northeast 274 315 8,700 -1,680 Descending FAA TRACON SMA TRACON (SMA)
06:26AM 34.9372 -81.3203 49° Northeast 270 311 8,300 -1,200 Descending FAA TRACON SMA TRACON (SMA)
06:26AM 34.9525 -81.3000 47° Northeast 264 304 8,000 -1,200 Descending FAA TRACON SMA TRACON (SMA)
06:26AM 34.9714 -81.2744 48° Northeast 262 302 7,500 -1,500 Descending FAA TRACON SMA TRACON (SMA)
06:27AM 34.9864 -81.2539 48° Northeast 262 302 7,000 -1,200 Descending FAA TRACON SMA TRACON (SMA)
06:27AM 35.0011 -81.2336 48° Northeast 261 300 6,700 -900 Descending FAA TRACON SMA TRACON (SMA)
06:27AM 35.0178 -81.2103 49° Northeast 257 296 6,400 -660 Descending FAA TRACON SMA TRACON (SMA)
06:28AM 35.0336 -81.1917 44° Northeast 243 280 6,300 -300 Descending FAA TRACON SMA TRACON (SMA)
06:28AM 35.0464 -81.1767 44° Northeast 217 250 6,200 -480 Descending FAA TRACON SMA TRACON (SMA)
06:28AM 35.0614 -81.1583 45° Northeast 196 226 6,000 -780 Descending FAA TRACON SMA TRACON (SMA)
06:29AM 35.0725 -81.1442 46° Northeast 192 221 5,700 -1,500 Descending FAA TRACON SMA TRACON (SMA)
06:29AM 35.0819 -81.1272 56° Northeast 198 228 5,000 -1,860 Descending FAA TRACON SMA TRACON (SMA)
06:29AM 35.0947 -81.1067 53° Northeast 196 226 4,500 -1,080 Descending FAA TRACON SMA TRACON (SMA)
06:30AM 35.1047 -81.0922 50° Northeast 185 213 4,300 -780 Descending FAA TRACON SMA TRACON (SMA)
06:30AM 35.1131 -81.0811 47° Northeast 147 169 4,000 -1,020 Descending FAA TRACON SMA TRACON (SMA)
06:31AM 35.1231 -81.0678 47° Northeast 134 154 3,600 -1,140 Descending FAA TRACON SMA TRACON (SMA)
06:31AM 35.1325 -81.0558 46° Northeast 121 139 3,200 -1,140 Descending FAA TRACON SMA TRACON (SMA)
06:31AM 35.1378 -81.0483 49° Northeast 124 143 2,900 -840 Descending FAA TRACON SMA TRACON (SMA)
06:31AM 35.1467 -81.0356 50° Northeast 127 146 2,700 -780 Descending FAA TRACON SMA TRACON (SMA)
06:32AM 35.1544 -81.0250 48° Northeast 131 151 2,400 -780 Descending FAA TRACON SMA TRACON (SMA)
06:32AM 35.1619 -81.0144 49° Northeast 132 152 2,200 -780 Descending FAA TRACON SMA TRACON (SMA)
06:32AM 35.1711 -81.0022 47° Northeast 128 147 1,900 -780 Descending FAA TRACON SMA TRACON (SMA)
06:33AM 35.1781 -80.9928 48° Northeast 124 143 1,700 -600 Descending FAA TRACON SMA TRACON (SMA)
06:33AM 35.1847 -80.9833 49° Northeast 122 140 1,500 -780 Descending FAA TRACON SMA TRACON (SMA)
06:33AM 35.1936 -80.9711 48° Northeast 122 140 1,200 -780 Descending FAA TRACON SMA TRACON (SMA)
06:34AM 35.2008 -80.9614 48° Northeast 125 144 1,000 -600 Descending FAA TRACON SMA TRACON (SMA)